createdAt,value
2023-02-15T00:01:42.999Z,102616.81
2023-02-15T00:04:11.071Z,102625.47
2023-02-15T00:06:37.570Z,102701.00
2023-02-15T00:09:04.252Z,102694.94
2023-02-15T00:11:50.009Z,102728.44
2023-02-15T00:14:22.328Z,102702.59
2023-02-15T00:16:50.771Z,102715.94
2023-02-15T00:19:19.291Z,102734.75
2023-02-15T00:21:46.945Z,102699.72
2023-02-15T00:24:15.685Z,102627.41
2023-02-15T00:26:43.513Z,102639.72
2023-02-15T00:29:11.654Z,102666.88
2023-02-15T00:31:38.546Z,102691.84
2023-02-15T00:34:07.785Z,102727.56
2023-02-15T00:36:35.761Z,102699.03
2023-02-15T00:39:02.360Z,102698.81
2023-02-15T00:41:28.901Z,102717.50
2023-02-15T00:43:55.526Z,102684.09
2023-02-15T00:46:22.825Z,102685.31
2023-02-15T00:48:49.800Z,102569.63
2023-02-15T00:51:16.757Z,102719.66
2023-02-15T00:53:44.815Z,102606.56
2023-02-15T00:56:11.982Z,102674.34
2023-02-15T00:58:38.638Z,102405.50
2023-02-15T01:01:08.114Z,102675.41
2023-02-15T01:03:35.452Z,102561.91
2023-02-15T01:06:03.810Z,102679.97
2023-02-15T01:08:31.297Z,102616.66
2023-02-15T01:10:58.103Z,102666.63
2023-02-15T01:13:24.805Z,102670.28
2023-02-15T01:15:55.853Z,102605.72
2023-02-15T01:18:23.272Z,102654.88
2023-02-15T01:20:50.325Z,102696.66
2023-02-15T01:23:17.078Z,102552.13
2023-02-15T01:25:46.336Z,102557.97
2023-02-15T01:28:13.282Z,102673.72
2023-02-15T01:30:39.963Z,102653.41
2023-02-15T01:33:06.566Z,102543.69
2023-02-15T01:35:33.589Z,102664.69
2023-02-15T01:38:00.252Z,102646.56
2023-02-15T01:40:26.846Z,102641.09
2023-02-15T01:42:54.941Z,102658.06
2023-02-15T01:45:23.987Z,102555.56
2023-02-15T01:48:03.024Z,102661.84
2023-02-15T01:50:32.652Z,102663.44
2023-02-15T01:53:06.916Z,102613.94
2023-02-15T01:55:38.102Z,102533.09
2023-02-15T01:58:05.073Z,102618.97
2023-02-15T02:00:32.557Z,102625.72
2023-02-15T02:02:59.441Z,102566.53
2023-02-15T02:05:26.890Z,102542.25
2023-02-15T02:07:57.159Z,102645.31
2023-02-15T02:10:24.380Z,102594.22
2023-02-15T02:12:55.122Z,102546.22
2023-02-15T02:15:48.207Z,102632.09
2023-02-15T02:18:31.106Z,102646.13
2023-02-15T02:21:43.800Z,102639.28
2023-02-15T02:24:44.892Z,102647.03
2023-02-15T02:27:22.020Z,102644.84
2023-02-15T02:30:07.401Z,102598.44
2023-02-15T02:33:00.857Z,102635.84
2023-02-15T02:35:33.644Z,102633.78
2023-02-15T02:38:17.675Z,102593.31
2023-02-15T02:40:57.178Z,102515.66
2023-02-15T02:43:34.484Z,102623.28
2023-02-15T02:46:11.079Z,102615.75
2023-02-15T02:48:39.242Z,102595.22
2023-02-15T02:51:05.788Z,102600.22
2023-02-15T02:53:34.472Z,102607.53
2023-02-15T02:56:11.726Z,102594.53
2023-02-15T02:58:50.021Z,102607.75
2023-02-15T03:01:23.537Z,102583.78
2023-02-15T03:04:32.251Z,102482.56
2023-02-15T03:07:02.433Z,102480.97
2023-02-15T03:09:43.915Z,102501.84
2023-02-15T03:12:22.552Z,102581.28
2023-02-15T03:14:57.037Z,102583.56
2023-02-15T03:17:27.325Z,102510.38
2023-02-15T03:19:58.821Z,102579.47
2023-02-15T03:22:37.636Z,102558.69
2023-02-15T03:25:31.679Z,102591.63
2023-02-15T03:28:06.065Z,102483.81
2023-02-15T03:30:35.391Z,102554.31
2023-02-15T03:33:03.899Z,102572.31
2023-02-15T03:35:40.156Z,102572.66
2023-02-15T03:38:10.160Z,102586.94
2023-02-15T03:41:03.851Z,102548.50
2023-02-15T03:43:53.076Z,102583.50
2023-02-15T03:46:29.663Z,102575.31
2023-02-15T03:49:07.575Z,102471.34
2023-02-15T03:51:39.013Z,102551.47
2023-02-15T03:54:44.113Z,102510.31
2023-02-15T03:57:41.388Z,102537.69
2023-02-15T04:00:42.230Z,102553.84
2023-02-15T04:03:23.491Z,102542.69
2023-02-15T04:05:50.164Z,102527.84
2023-02-15T04:08:16.750Z,102558.28
2023-02-15T04:10:57.071Z,102508.81
2023-02-15T04:13:31.675Z,102454.88
2023-02-15T04:16:05.109Z,102518.50
2023-02-15T04:18:59.201Z,102517.47
2023-02-15T04:21:46.416Z,102459.63
2023-02-15T04:24:32.621Z,102506.34
2023-02-15T04:27:00.224Z,102523.72
2023-02-15T04:29:28.146Z,102489.00
2023-02-15T04:31:56.315Z,102551.22
2023-02-15T04:34:23.104Z,102538.47
2023-02-15T04:36:51.186Z,102543.56
2023-02-15T04:39:18.980Z,102494.41
2023-02-15T04:41:45.588Z,102559.19
2023-02-15T04:44:12.408Z,102524.16
2023-02-15T04:46:39.182Z,102512.41
2023-02-15T04:49:05.726Z,102541.88
2023-02-15T04:51:32.270Z,102429.66
2023-02-15T04:53:58.823Z,102516.06
2023-02-15T04:56:25.349Z,102461.81
2023-02-15T04:58:51.942Z,102512.41
2023-02-15T05:01:19.875Z,102355.81
2023-02-15T05:03:46.456Z,102541.19
2023-02-15T05:06:13.053Z,102517.91
2023-02-15T05:08:39.520Z,102512.91
2023-02-15T05:11:06.104Z,102414.88
2023-02-15T05:13:32.642Z,102516.81
2023-02-15T05:15:59.483Z,102413.63
2023-02-15T05:18:26.574Z,102517.34
2023-02-15T05:20:53.277Z,102526.47
2023-02-15T05:23:19.873Z,102502.75
2023-02-15T05:26:09.656Z,102531.16
2023-02-15T05:28:37.985Z,102479.66
2023-02-15T05:31:14.313Z,102470.75
2023-02-15T05:33:41.587Z,102475.63
2023-02-15T05:36:09.017Z,102430.81
2023-02-15T05:38:37.753Z,102414.94
2023-02-15T05:41:08.560Z,102420.41
2023-02-15T05:43:35.611Z,102513.94
2023-02-15T05:46:03.113Z,102436.53
2023-02-15T05:48:29.921Z,102475.88
2023-02-15T05:51:04.290Z,102522.28
2023-02-15T05:53:33.553Z,102494.00
2023-02-15T05:56:01.484Z,102501.47
2023-02-15T05:58:30.970Z,102494.72
2023-02-15T06:00:57.799Z,102521.84
2023-02-15T06:03:26.639Z,102520.81
2023-02-15T06:05:53.665Z,102495.56
2023-02-15T06:08:20.424Z,102515.41
2023-02-15T06:10:47.416Z,102408.53
2023-02-15T06:13:14.046Z,102523.25
2023-02-15T06:15:40.661Z,102491.31
2023-02-15T06:18:10.394Z,102427.84
2023-02-15T06:20:37.016Z,102406.22
2023-02-15T06:23:03.642Z,102512.47
2023-02-15T06:25:31.182Z,102429.69
2023-02-15T06:27:57.900Z,102526.28
2023-02-15T06:30:24.506Z,102482.59
2023-02-15T06:32:51.082Z,102432.84
2023-02-15T06:35:17.652Z,102478.44
2023-02-15T06:37:47.541Z,102522.91
2023-02-15T06:40:14.270Z,102511.09
2023-02-15T06:42:41.704Z,102533.63
2023-02-15T06:45:08.855Z,102504.03
2023-02-15T06:47:35.780Z,102511.47
2023-02-15T06:50:02.657Z,102500.09
2023-02-15T06:52:30.456Z,102390.47
2023-02-15T06:54:57.077Z,102423.91
2023-02-15T06:57:23.686Z,102491.41
2023-02-15T06:59:50.307Z,102509.78
2023-02-15T07:02:16.931Z,102477.44
2023-02-15T07:04:43.603Z,102408.63
2023-02-15T07:07:12.328Z,102422.41
2023-02-15T07:09:39.676Z,102417.31
2023-02-15T07:12:25.490Z,102488.16
2023-02-15T07:14:52.611Z,102393.13
2023-02-15T07:17:36.135Z,102466.44
2023-02-15T07:20:06.222Z,102514.78
2023-02-15T07:22:34.887Z,102483.59
2023-02-15T07:25:01.800Z,102475.38
2023-02-15T07:27:28.580Z,102505.28
2023-02-15T07:29:55.184Z,102494.94
2023-02-15T07:32:21.788Z,102481.63
2023-02-15T07:34:48.443Z,102487.50
2023-02-15T07:37:15.027Z,102470.78
2023-02-15T07:39:41.575Z,102450.97
2023-02-15T07:42:08.114Z,102458.75
2023-02-15T07:44:36.443Z,102384.13
2023-02-15T07:47:03.114Z,102384.75
2023-02-15T07:49:29.667Z,102441.53
2023-02-15T07:51:56.307Z,102408.97
2023-02-15T07:54:22.916Z,102465.53
2023-02-15T07:56:49.486Z,102437.16
2023-02-15T07:59:16.087Z,102460.66
2023-02-15T08:01:42.752Z,102455.50
2023-02-15T08:04:11.887Z,102443.13
2023-02-15T08:06:39.005Z,102434.19
2023-02-15T08:09:07.672Z,102449.09
2023-02-15T08:11:37.540Z,102381.66
2023-02-15T08:14:14.384Z,102479.81
2023-02-15T08:16:58.031Z,102438.56
2023-02-15T08:19:30.618Z,102463.41
2023-02-15T08:21:58.405Z,102472.56
2023-02-15T08:24:27.728Z,102475.44
2023-02-15T08:26:54.727Z,102458.53
2023-02-15T08:29:24.726Z,102365.44
2023-02-15T08:31:54.776Z,102425.59
2023-02-15T08:34:22.173Z,102423.97
2023-02-15T08:36:48.758Z,102344.88
2023-02-15T08:39:16.117Z,102358.38
2023-02-15T08:41:44.884Z,102425.78
2023-02-15T08:44:11.847Z,102414.53
2023-02-15T08:46:41.601Z,102441.81
2023-02-15T08:49:08.846Z,102420.09
2023-02-15T08:51:37.952Z,102360.41
2023-02-15T08:54:09.898Z,102449.47
2023-02-15T08:56:39.754Z,102443.88
2023-02-15T08:59:08.368Z,102454.63
2023-02-15T09:01:36.102Z,102413.72
2023-02-15T09:04:06.320Z,102366.34
2023-02-15T09:06:33.765Z,102366.78
2023-02-15T09:09:00.508Z,102415.31
2023-02-15T09:11:33.768Z,102409.13
2023-02-15T09:14:03.177Z,102422.50
2023-02-15T09:16:32.677Z,102437.38
2023-02-15T09:19:02.121Z,102374.22
2023-02-15T09:21:29.722Z,102416.34
2023-02-15T09:24:00.628Z,102436.78
2023-02-15T09:26:29.193Z,102219.88
2023-02-15T09:28:58.859Z,102415.31
2023-02-15T09:31:28.128Z,102362.09
2023-02-15T09:33:55.680Z,102369.66
2023-02-15T09:36:39.356Z,102438.44
2023-02-15T09:39:18.251Z,102362.66
2023-02-15T09:41:56.627Z,102437.88
2023-02-15T09:44:58.554Z,102381.22
2023-02-15T09:48:03.750Z,102429.25
2023-02-15T09:50:54.868Z,102439.41
2023-02-15T09:53:54.035Z,102426.41
2023-02-15T09:56:49.132Z,102417.56
2023-02-15T09:59:24.283Z,102414.75
2023-02-15T10:02:15.020Z,102413.16
2023-02-15T10:05:01.238Z,102397.84
2023-02-15T10:07:51.778Z,102401.88
2023-02-15T10:10:48.402Z,102414.00
2023-02-15T10:13:20.651Z,102415.03
2023-02-15T10:16:11.989Z,102416.38
2023-02-15T10:18:50.350Z,102417.31
2023-02-15T10:21:47.771Z,102410.78
2023-02-15T10:24:22.701Z,102383.81
2023-02-15T10:26:50.176Z,102383.91
2023-02-15T10:29:37.368Z,102400.34
2023-02-15T10:32:25.863Z,102343.94
2023-02-15T10:35:16.886Z,102360.91
2023-02-15T10:38:03.445Z,102409.84
2023-02-15T10:40:36.151Z,102405.28
2023-02-15T10:43:19.193Z,102390.97
2023-02-15T10:46:00.991Z,102399.31
2023-02-15T10:48:42.852Z,102374.22
2023-02-15T10:51:19.725Z,102372.94
2023-02-15T10:54:07.180Z,102395.97
2023-02-15T10:56:46.125Z,102378.63
2023-02-15T10:59:41.917Z,102390.28
2023-02-15T11:02:24.248Z,102363.72
2023-02-15T11:05:12.032Z,102329.28
2023-02-15T11:07:45.952Z,102361.34
2023-02-15T11:10:18.342Z,102340.41
2023-02-15T11:12:46.531Z,102381.53
2023-02-15T11:15:26.983Z,102341.16
2023-02-15T11:18:03.574Z,102393.88
2023-02-15T11:20:44.759Z,102348.69
2023-02-15T11:23:17.331Z,102364.44
2023-02-15T11:25:45.512Z,102374.53
2023-02-15T11:28:20.649Z,102292.78
2023-02-15T11:30:53.141Z,102358.38
2023-02-15T11:33:23.276Z,102353.00
2023-02-15T11:35:54.698Z,102353.75
2023-02-15T11:38:25.723Z,102336.66
2023-02-15T11:41:05.019Z,102353.47
2023-02-15T11:43:35.053Z,102337.13
2023-02-15T11:46:02.207Z,102311.00
2023-02-15T11:48:31.692Z,102319.41
2023-02-15T11:50:59.581Z,102338.88
2023-02-15T11:53:29.598Z,102264.53
2023-02-15T11:55:56.802Z,102254.75
2023-02-15T11:58:26.151Z,102315.31
2023-02-15T12:00:59.158Z,102292.25
2023-02-15T12:03:45.390Z,102229.28
2023-02-15T12:06:33.200Z,102306.63
2023-02-15T12:09:37.064Z,102298.47
2023-02-15T12:12:29.441Z,102291.13
2023-02-15T12:15:17.908Z,102232.09
2023-02-15T12:17:55.690Z,102279.34
2023-02-15T12:20:29.875Z,102206.72
2023-02-15T12:23:03.308Z,102257.25
2023-02-15T12:25:43.401Z,102264.59
2023-02-15T12:28:27.795Z,102256.75
2023-02-15T12:30:56.463Z,102247.69
2023-02-15T12:33:36.435Z,102246.16
2023-02-15T12:36:24.938Z,102201.97
2023-02-15T12:39:12.644Z,102266.41
2023-02-15T12:41:47.880Z,102234.66
2023-02-15T12:44:20.667Z,102249.31
2023-02-15T12:47:08.206Z,102273.28
2023-02-15T12:49:39.317Z,102147.53
2023-02-15T12:52:23.376Z,102215.34
2023-02-15T12:54:51.377Z,102216.41
2023-02-15T12:57:30.646Z,102177.16
2023-02-15T12:59:58.773Z,102244.53
2023-02-15T13:02:31.483Z,102196.75
2023-02-15T13:05:05.593Z,102219.66
2023-02-15T13:07:33.102Z,102163.41
2023-02-15T13:10:00.035Z,102169.75
2023-02-15T13:12:31.513Z,102228.34
2023-02-15T13:15:00.140Z,102208.69
2023-02-15T13:17:33.473Z,102198.84
2023-02-15T13:20:10.395Z,102203.66
2023-02-15T13:22:45.592Z,102170.88
2023-02-15T13:25:18.103Z,102216.38
2023-02-15T13:27:47.003Z,102111.72
2023-02-15T13:30:35.790Z,102182.97
2023-02-15T13:33:10.047Z,102125.31
2023-02-15T13:35:45.480Z,102188.75
2023-02-15T13:38:30.179Z,102184.81
2023-02-15T13:41:02.609Z,102189.56
2023-02-15T13:43:43.564Z,102163.09
2023-02-15T13:46:10.151Z,102190.25
2023-02-15T13:48:56.392Z,102161.19
2023-02-15T13:51:30.513Z,102100.38
2023-02-15T13:54:38.837Z,102183.19
2023-02-15T13:57:42.848Z,102173.28
2023-02-15T14:00:09.438Z,102134.31
2023-02-15T14:02:44.990Z,102181.63
2023-02-15T14:05:29.853Z,102181.28
2023-02-15T14:08:11.159Z,102084.72
2023-02-15T14:11:07.030Z,102096.81
2023-02-15T14:13:42.440Z,102175.44
2023-02-15T14:16:33.752Z,102197.75
2023-02-15T14:19:09.712Z,102206.63
2023-02-15T14:21:47.143Z,102173.19
2023-02-15T14:24:36.605Z,102181.19
2023-02-15T14:27:19.817Z,102162.41
2023-02-15T14:30:01.169Z,102197.81
2023-02-15T14:32:40.189Z,102087.19
2023-02-15T14:35:15.459Z,102180.59
2023-02-15T14:37:47.330Z,102194.31
2023-02-15T14:40:43.231Z,102188.94
2023-02-15T14:43:16.385Z,102175.34
2023-02-15T14:45:53.205Z,102190.56
2023-02-15T14:48:39.007Z,102054.59
2023-02-15T14:51:05.803Z,102162.38
2023-02-15T14:53:32.389Z,102201.91
2023-02-15T14:56:11.485Z,102192.78
2023-02-15T14:58:38.986Z,102094.53
2023-02-15T15:01:11.314Z,102124.91
2023-02-15T15:03:49.516Z,102184.22
2023-02-15T15:06:34.095Z,102150.81
2023-02-15T15:09:23.455Z,102218.16
2023-02-15T15:11:51.831Z,102171.09
2023-02-15T15:14:44.829Z,102222.94
2023-02-15T15:17:12.645Z,102221.72
2023-02-15T15:19:52.008Z,102220.56
2023-02-15T15:22:25.327Z,102208.69
2023-02-15T15:25:00.738Z,102193.88
2023-02-15T15:27:49.591Z,102207.16
2023-02-15T15:30:19.037Z,102204.28
2023-02-15T15:32:54.704Z,102207.53
2023-02-15T15:35:36.403Z,102196.59
2023-02-15T15:38:21.561Z,102191.84
2023-02-15T15:41:03.021Z,102197.78
2023-02-15T15:43:55.181Z,102188.38
2023-02-15T15:46:52.676Z,102168.97
2023-02-15T15:49:22.134Z,102153.31
2023-02-15T15:51:49.555Z,102170.91
2023-02-15T15:54:25.419Z,102171.44
2023-02-15T15:56:59.007Z,102081.72
2023-02-15T15:59:28.805Z,102076.94
2023-02-15T16:01:56.093Z,102078.25
2023-02-15T16:04:31.008Z,102157.81
2023-02-15T16:06:59.159Z,102179.78
2023-02-15T16:09:28.294Z,102096.41
2023-02-15T16:12:01.283Z,102158.19
2023-02-15T16:14:39.080Z,102174.16
2023-02-15T16:17:09.312Z,102180.72
2023-02-15T16:19:41.718Z,102130.50
2023-02-15T16:22:22.683Z,102161.38
2023-02-15T16:25:43.170Z,102195.19
2023-02-15T16:28:13.418Z,102170.38
2023-02-15T16:30:43.020Z,102089.69
2023-02-15T16:33:15.905Z,102179.44
2023-02-15T16:35:55.565Z,102159.91
2023-02-15T16:38:45.394Z,102190.06
2023-02-15T16:41:36.567Z,102178.00
2023-02-15T16:44:13.260Z,102143.88
2023-02-15T16:46:47.212Z,102194.84
2023-02-15T16:49:20.836Z,102185.56
2023-02-15T16:52:00.833Z,102176.72
2023-02-15T16:54:30.040Z,102176.41
2023-02-15T16:56:57.011Z,102076.38
2023-02-15T16:59:41.047Z,102178.00
2023-02-15T17:02:37.195Z,102160.63
2023-02-15T17:05:14.569Z,102199.84
2023-02-15T17:07:43.458Z,102158.81
2023-02-15T17:10:38.284Z,102205.97
2023-02-15T17:13:11.602Z,102173.63
2023-02-15T17:16:01.118Z,102220.03
2023-02-15T17:18:34.505Z,102217.53
2023-02-15T17:21:11.765Z,102137.34
2023-02-15T17:23:44.194Z,102223.91
2023-02-15T17:26:22.152Z,102188.28
2023-02-15T17:28:52.376Z,102203.31
2023-02-15T17:31:21.175Z,102216.88
2023-02-15T17:33:48.827Z,102224.81
2023-02-15T17:36:23.161Z,102096.84
2023-02-15T17:38:58.795Z,102218.91
2023-02-15T17:41:30.106Z,102110.13
2023-02-15T17:43:56.847Z,102117.22
2023-02-15T17:46:24.532Z,102153.28
2023-02-15T17:48:54.741Z,102099.53
2023-02-15T17:51:22.767Z,102175.75
2023-02-15T17:54:08.801Z,102226.78
2023-02-15T17:56:37.625Z,102190.09
2023-02-15T17:59:07.955Z,102094.78
2023-02-15T18:01:55.678Z,102188.50
2023-02-15T18:04:41.857Z,102135.69
2023-02-15T18:07:31.797Z,102180.50
2023-02-15T18:10:17.047Z,102212.81
2023-02-15T18:12:43.767Z,102094.94
2023-02-15T18:15:13.721Z,102175.63
2023-02-15T18:17:46.835Z,102193.28
2023-02-15T18:20:24.371Z,102180.16
2023-02-15T18:22:51.932Z,102217.44
2023-02-15T18:25:22.621Z,102214.25
2023-02-15T18:27:49.257Z,102207.41
2023-02-15T18:30:18.515Z,102194.56
2023-02-15T18:32:47.412Z,102248.13
2023-02-15T18:35:16.343Z,102206.28
2023-02-15T18:37:43.274Z,102250.38
2023-02-15T18:40:16.158Z,102237.66
2023-02-15T18:42:47.006Z,102107.03
2023-02-15T18:45:27.460Z,102137.25
2023-02-15T18:47:55.112Z,102204.78
2023-02-15T18:50:23.053Z,102133.63
2023-02-15T18:52:53.665Z,102109.16
2023-02-15T18:55:23.024Z,102109.81
2023-02-15T18:57:52.178Z,102220.19
2023-02-15T19:00:22.201Z,102133.84
2023-02-15T19:02:49.001Z,102146.38
2023-02-15T19:05:17.830Z,102215.97
2023-02-15T19:07:50.960Z,102220.41
2023-02-15T19:10:20.448Z,102142.25
2023-02-15T19:12:48.425Z,102226.59
2023-02-15T19:15:20.912Z,102221.91
2023-02-15T19:17:47.544Z,102118.25
2023-02-15T19:20:20.072Z,102224.09
2023-02-15T19:22:49.056Z,102231.84
2023-02-15T19:25:21.109Z,102123.91
2023-02-15T19:27:48.097Z,102256.91
2023-02-15T19:30:32.941Z,102125.44
2023-02-15T19:33:00.364Z,102146.13
2023-02-15T19:35:34.297Z,102124.19
2023-02-15T19:38:05.925Z,102225.59
2023-02-15T19:40:35.134Z,102240.47
2023-02-15T19:43:02.990Z,102241.66
2023-02-15T19:45:31.798Z,102166.25
2023-02-15T19:48:01.259Z,102230.50
2023-02-15T19:50:33.075Z,102232.56
2023-02-15T19:53:01.541Z,102237.84
2023-02-15T19:55:30.685Z,102254.25
2023-02-15T19:57:59.069Z,102072.19
2023-02-15T20:00:29.730Z,102247.75
2023-02-15T20:02:59.107Z,102248.31
2023-02-15T20:05:34.821Z,102230.22
2023-02-15T20:08:03.931Z,102221.06
2023-02-15T20:10:31.760Z,102241.75
2023-02-15T20:12:59.000Z,102227.75
2023-02-15T20:15:29.490Z,102237.47
2023-02-15T20:17:58.131Z,102207.78
2023-02-15T20:20:31.890Z,102236.47
2023-02-15T20:22:58.508Z,102158.94
2023-02-15T20:25:27.889Z,102140.72
2023-02-15T20:27:55.575Z,102149.53
2023-02-15T20:30:24.759Z,102149.84
2023-02-15T20:32:51.759Z,102247.50
2023-02-15T20:35:23.839Z,102243.88
2023-02-15T20:37:55.722Z,102247.34
2023-02-15T20:40:31.669Z,102152.75
2023-02-15T20:42:58.257Z,102243.91
2023-02-15T20:45:27.512Z,102240.00
2023-02-15T20:47:54.148Z,102193.41
2023-02-15T20:50:23.940Z,102246.00
2023-02-15T20:52:53.019Z,102157.13
2023-02-15T20:55:25.882Z,102162.22
2023-02-15T20:57:53.037Z,102253.63
2023-02-15T21:00:22.212Z,102181.06
2023-02-15T21:03:01.089Z,102242.75
2023-02-15T21:05:30.722Z,102223.63
2023-02-15T21:07:57.763Z,102140.88
2023-02-15T21:10:27.998Z,102233.44
2023-02-15T21:12:55.349Z,102169.28
2023-02-15T21:15:26.588Z,102153.13
2023-02-15T21:17:53.799Z,102243.84
2023-02-15T21:20:20.506Z,102129.38
2023-02-15T21:22:47.991Z,102238.34
2023-02-15T21:25:34.195Z,102251.06
2023-02-15T21:28:01.030Z,102237.25
2023-02-15T21:30:27.748Z,102228.41
2023-02-15T21:32:54.683Z,102240.47
2023-02-15T21:35:21.953Z,102238.41
2023-02-15T21:37:51.125Z,102146.31
2023-02-15T21:40:21.873Z,102152.31
2023-02-15T21:43:07.468Z,102229.13
2023-02-15T21:45:52.737Z,102228.38
2023-02-15T21:48:21.683Z,102225.00
2023-02-15T21:51:09.026Z,102207.13
2023-02-15T21:53:42.285Z,102227.50
2023-02-15T21:56:12.123Z,102221.91
2023-02-15T21:58:38.662Z,102219.50
2023-02-15T22:01:05.901Z,102222.06
2023-02-15T22:03:35.750Z,102142.88
2023-02-15T22:06:02.749Z,102230.97
2023-02-15T22:08:29.536Z,102194.53
2023-02-15T22:10:56.633Z,102216.78
2023-02-15T22:13:31.417Z,102226.59
2023-02-15T22:15:58.842Z,102225.28
2023-02-15T22:18:31.399Z,102212.50
2023-02-15T22:20:59.941Z,102235.56
2023-02-15T22:23:26.565Z,102195.28
2023-02-15T22:26:02.334Z,102216.53
2023-02-15T22:28:34.420Z,102242.13
2023-02-15T22:31:01.719Z,102131.44
2023-02-15T22:33:30.870Z,102234.97
2023-02-15T22:35:58.436Z,102243.16
2023-02-15T22:38:25.147Z,102093.72
2023-02-15T22:40:55.156Z,102133.28
2023-02-15T22:43:23.304Z,102252.91
2023-02-15T22:45:50.514Z,102132.53
2023-02-15T22:48:22.406Z,102199.50
2023-02-15T22:50:49.351Z,102145.25
2023-02-15T22:53:15.962Z,102241.06
2023-02-15T22:55:42.620Z,102222.63
2023-02-15T22:58:16.194Z,102220.25
2023-02-15T23:00:43.366Z,102164.00
2023-02-15T23:03:21.249Z,102128.25
2023-02-15T23:05:48.237Z,102130.78
2023-02-15T23:08:15.168Z,102226.41
2023-02-15T23:10:44.332Z,102212.34
2023-02-15T23:13:24.162Z,102229.75
2023-02-15T23:15:58.150Z,102231.81
2023-02-15T23:18:24.625Z,102230.22
2023-02-15T23:21:01.845Z,102226.31
2023-02-15T23:23:40.946Z,102135.66
2023-02-15T23:26:16.581Z,102112.47
2023-02-15T23:28:43.302Z,102196.41
2023-02-15T23:31:31.639Z,102235.88
2023-02-15T23:34:00.321Z,102243.56
2023-02-15T23:36:38.968Z,102216.84
2023-02-15T23:39:34.749Z,102259.47
2023-02-15T23:42:05.066Z,102138.19
2023-02-15T23:44:32.149Z,102229.06
2023-02-15T23:46:59.267Z,102235.13
2023-02-15T23:49:25.844Z,102241.19
2023-02-15T23:51:55.805Z,102127.78
2023-02-15T23:54:26.342Z,102221.31
2023-02-15T23:56:56.664Z,102196.78
2023-02-15T23:59:27.165Z,102208.59
